Mae, Washington
Current Conditions -  °F | °C
As of 11:52 AM on Thursday 23 Oct 2014 (Local Time) from KMWH Reporting Station
Overcast Overcast  
Wind Chill: 58°   Ceiling: 10000
Heat Index: 58°   Visibility: 10mi
Dew Point: 49°   Wind: 12mph
Humidity: 72%   Direction: 210°SSW
Pressure: 29.78"   Gusts: NA
Location:  47.1758°N, 119.289°W
Report Text: KMWH 231852Z 21010KT 10SM OVC100 14/09 A2978 RMK AO2 SLP083 T01440094
Loading
Personal Weather Stations






























Interactive Weather Map
Tropical Storm Tracking
New forecast layout! Learn more

10-Day Weather Forecast

Advertisements
Track Severe Weather on mobile